Time;durP1;ratioP1;P1;durP2;ratioP2;P2;SDS_P1;SDS_P2;PMS_P1;PMS_P2;Temp;Humidity;BMP_temperature;BMP_pressure;BME280_temperature;BME280_humidity;BME280_pressure;Samples;Min_cycle;Max_cycle;Signal;HPM_P1;HPM_P2
2022/03/20 00:00:13;;;;;;;10.95;7.43;;;;;;;8.06;56.81;101274.28;4997605;28;20136;-87
2022/03/20 00:02:40;;;;;;;11.05;7.70;;;;;;;7.98;56.82;101264.97;5016500;28;20080;-87
2022/03/20 00:05:05;;;;;;;9.80;7.30;;;;;;;8.02;57.40;101267.38;5000633;28;20149;-86
2022/03/20 00:07:33;;;;;;;9.38;7.63;;;;;;;7.97;56.82;101263.28;5000642;28;20061;-83
2022/03/20 00:09:58;;;;;;;13.10;8.15;;;;;;;8.00;57.29;101265.75;4998170;28;20030;-85
2022/03/20 00:12:24;;;;;;;11.70;8.73;;;;;;;8.04;57.13;101249.53;5015347;28;20039;-86
2022/03/20 00:14:49;;;;;;;11.23;8.27;;;;;;;8.06;57.42;101244.13;5015532;28;20026;-87
2022/03/20 00:17:15;;;;;;;11.95;8.80;;;;;;;7.95;57.28;101236.72;4998946;28;20022;-87
2022/03/20 00:19:41;;;;;;;14.63;9.18;;;;;;;7.82;56.48;101236.59;5016520;28;20037;-86
2022/03/20 00:22:07;;;;;;;13.07;8.80;;;;;;;7.89;56.72;101227.28;5016922;28;20026;-88
2022/03/20 00:24:33;;;;;;;12.30;9.45;;;;;;;7.85;56.65;101228.41;5000331;28;20041;-88
2022/03/20 00:26:58;;;;;;;12.38;9.38;;;;;;;7.82;56.61;101222.41;4999700;28;20026;-87
2022/03/20 00:29:27;;;;;;;12.38;9.55;;;;;;;7.81;56.31;101232.22;5024631;28;21251;-87
2022/03/20 00:31:53;;;;;;;11.93;9.65;;;;;;;7.85;56.11;101219.56;5000039;28;20030;-86
2022/03/20 00:34:19;;;;;;;13.52;10.13;;;;;;;7.82;56.66;101215.28;5024322;28;20092;-87
2022/03/20 00:36:45;;;;;;;13.80;10.73;;;;;;;7.77;56.50;101216.50;5000094;28;20052;-87
2022/03/20 00:39:10;;;;;;;16.30;11.02;;;;;;;7.76;56.05;101206.78;4998593;28;20025;-88
2022/03/20 00:41:35;;;;;;;16.45;10.95;;;;;;;7.69;55.30;101208.09;4997482;28;20037;-87
2022/03/20 00:44:01;;;;;;;17.75;12.07;;;;;;;7.61;55.47;101203.22;4998890;28;20037;-85
2022/03/20 00:46:27;;;;;;;18.23;11.57;;;;;;;7.58;55.48;101200.72;4998200;28;20030;-87
2022/03/20 00:48:53;;;;;;;15.57;11.40;;;;;;;7.51;55.19;101199.34;5015676;28;20024;-87
2022/03/20 00:51:18;;;;;;;16.48;12.32;;;;;;;7.59;55.10;101197.13;5014517;28;20030;-87
2022/03/20 00:53:44;;;;;;;17.05;11.32;;;;;;;7.65;55.51;101202.09;4999380;28;20134;-86
2022/03/20 00:56:09;;;;;;;17.92;11.85;;;;;;;7.58;55.18;101195.41;5015717;28;20121;-88
2022/03/20 00:58:34;;;;;;;15.20;12.38;;;;;;;7.58;55.00;101184.75;5015698;28;20105;-86
2022/03/20 01:01:00;;;;;;;14.13;11.43;;;;;;;7.62;55.29;101177.47;5014470;28;20077;-86
2022/03/20 01:03:25;;;;;;;13.90;11.15;;;;;;;7.60;55.28;101171.38;5000362;28;20443;-87
2022/03/20 01:05:51;;;;;;;17.75;12.70;;;;;;;7.47;54.63;101172.03;5000134;28;20067;-88
2022/03/20 01:08:18;;;;;;;16.15;12.27;;;;;;;7.66;55.56;101163.03;5015162;28;20914;-88
2022/03/20 01:10:44;;;;;;;18.67;12.50;;;;;;;7.52;54.40;101153.16;4998872;28;20065;-87
2022/03/20 01:13:09;;;;;;;18.27;12.35;;;;;;;7.45;54.47;101139.34;5014565;28;20068;-87
2022/03/20 01:15:34;;;;;;;17.02;12.52;;;;;;;7.42;54.62;101139.53;5016616;28;20041;-88
2022/03/20 01:18:00;;;;;;;18.75;13.07;;;;;;;7.42;54.22;101138.66;5013099;28;20125;-87
2022/03/20 01:20:25;;;;;;;19.23;13.18;;;;;;;7.45;54.25;101138.47;4999907;28;20068;-88
2022/03/20 01:22:50;;;;;;;17.30;12.55;;;;;;;7.50;54.35;101139.94;4997341;28;20574;-87
2022/03/20 01:25:17;;;;;;;15.38;12.35;;;;;;;7.46;54.06;101137.53;5015052;28;20052;-88
2022/03/20 01:27:42;;;;;;;18.98;13.00;;;;;;;7.55;54.42;101127.22;4999324;28;20031;-85
2022/03/20 01:30:08;;;;;;;14.98;11.82;;;;;;;7.50;53.94;101133.75;5014430;28;20037;-88
2022/03/20 01:32:34;;;;;;;16.70;12.60;;;;;;;7.45;54.20;101117.19;4999346;28;20048;-87
2022/03/20 01:34:59;;;;;;;16.58;12.40;;;;;;;7.41;54.23;101110.34;5015980;28;20048;-87
2022/03/20 01:37:25;;;;;;;18.73;13.32;;;;;;;7.39;54.07;101117.56;5014453;28;20409;-87
2022/03/20 01:39:52;;;;;;;14.32;12.00;;;;;;;7.39;54.58;101105.09;4997246;28;20152;-87
2022/03/20 01:42:18;;;;;;;19.73;13.38;;;;;;;7.44;53.88;101100.38;4998316;28;20041;-87
2022/03/20 01:44:43;;;;;;;15.93;12.48;;;;;;;7.59;55.09;101101.31;4999269;28;20049;-87
2022/03/20 01:47:08;;;;;;;15.02;11.88;;;;;;;7.73;55.84;101095.16;4999174;28;20022;-87
2022/03/20 01:49:34;;;;;;;17.05;12.75;;;;;;;7.59;55.56;101085.34;5016266;28;20042;-87
2022/03/20 01:52:23;;;;;;;16.88;12.70;;;;;;;7.64;55.59;101079.72;4998005;28;20483;-87
2022/03/20 01:54:49;;;;;;;17.85;13.35;;;;;;;7.52;54.00;101079.47;5019045;28;20052;-87
2022/03/20 01:57:20;;;;;;;16.00;12.82;;;;;;;7.47;54.45;101068.25;5001032;28;20141;-86
2022/03/20 01:59:46;;;;;;;16.13;12.57;;;;;;;7.51;55.02;101064.47;5036035;28;20526;-86
2022/03/20 02:02:14;;;;;;;15.80;12.75;;;;;;;7.53;54.46;101064.38;5017484;28;20571;-86
2022/03/20 02:04:39;;;;;;;18.55;13.20;;;;;;;7.70;55.39;101060.72;5018459;28;20030;-87
2022/03/20 02:07:06;;;;;;;15.23;12.70;;;;;;;7.72;55.06;101059.69;5017035;28;20060;-86
2022/03/20 02:09:32;;;;;;;18.52;13.40;;;;;;;7.56;53.31;101057.06;5002373;28;20034;-88
2022/03/20 02:11:58;;;;;;;17.65;13.05;;;;;;;7.61;53.88;101048.84;5018676;28;20107;-86
2022/03/20 02:14:24;;;;;;;17.77;14.18;;;;;;;7.44;52.69;101041.81;5017846;28;20140;-87
2022/03/20 02:16:50;;;;;;;16.77;12.70;;;;;;;7.45;53.45;101037.38;5002677;28;20206;-87
2022/03/20 02:19:16;;;;;;;18.65;13.57;;;;;;;7.73;55.26;101021.47;5019743;28;20026;-86
2022/03/20 02:21:46;;;;;;;18.10;13.68;;;;;;;7.60;53.54;101022.31;5002486;28;20037;-88
2022/03/20 02:24:48;;;;;;;19.98;13.88;;;;;;;7.42;52.79;101016.25;5009136;28;20061;-85
2022/03/20 02:27:18;;;;;;;17.92;12.98;;;;;;;7.40;52.67;101020.81;5001716;28;21034;-87
2022/03/20 02:29:48;;;;;;;18.23;14.50;;;;;;;7.33;52.50;101007.03;5018431;28;20029;-87
2022/03/20 02:32:16;;;;;;;19.42;13.57;;;;;;;7.25;52.05;101007.47;5019586;28;20140;-87
2022/03/20 02:34:45;;;;;;;19.90;13.50;;;;;;;7.37;52.65;100999.72;5001933;28;20371;-88
2022/03/20 02:37:10;;;;;;;18.58;14.10;;;;;;;7.43;52.88;100997.53;5017549;28;20037;-87
2022/03/20 02:39:36;;;;;;;18.85;12.93;;;;;;;7.49;53.11;100989.19;5018133;28;20037;-87
2022/03/20 02:42:04;;;;;;;19.30;13.70;;;;;;;7.62;54.02;100986.66;5001003;28;20033;-87
2022/03/20 02:44:49;;;;;;;17.40;14.00;;;;;;;7.51;52.49;100981.97;5002964;28;20041;-87
2022/03/20 02:47:15;;;;;;;18.08;13.82;;;;;;;7.36;51.39;100974.91;5018967;28;20083;-86
2022/03/20 02:49:41;;;;;;;19.88;14.20;;;;;;;7.24;51.75;100983.63;5001613;28;20025;-88
2022/03/20 02:52:07;;;;;;;18.80;13.77;;;;;;;7.26;52.12;100977.28;5015541;28;20676;-87
2022/03/20 02:54:32;;;;;;;18.08;13.48;;;;;;;7.34;52.64;100974.16;5001014;28;20062;-87
2022/03/20 02:56:57;;;;;;;17.73;13.43;;;;;;;7.30;51.96;100971.75;5001177;28;20091;-87
2022/03/20 02:59:23;;;;;;;20.10;14.32;;;;;;;7.25;51.48;100964.91;5002274;28;20065;-87
2022/03/20 03:01:49;;;;;;;18.52;13.32;;;;;;;7.31;51.94;100954.84;4999695;28;20049;-87
2022/03/20 03:04:14;;;;;;;18.55;13.65;;;;;;;7.28;51.86;100961.22;5000337;28;20037;-85
2022/03/20 03:06:39;;;;;;;19.10;13.55;;;;;;;7.40;52.60;100959.63;5000710;28;20112;-87
2022/03/20 03:11:48;;;;;;;17.50;13.73;;;;;;;7.18;51.69;100950.28;5017986;28;20403;-87
2022/03/20 03:16:58;;;;;;;18.52;13.45;;;;;;;7.36;53.58;100955.44;5017319;28;20029;-87
2022/03/20 03:19:23;;;;;;;20.42;14.38;;;;;;;7.22;51.12;100951.81;5001355;28;20038;-86
2022/03/20 03:21:49;;;;;;;18.50;13.77;;;;;;;7.18;51.63;100942.28;4999657;28;20399;-87
2022/03/20 03:24:14;;;;;;;19.60;13.85;;;;;;;7.10;51.64;100943.72;5001486;28;20502;-87
2022/03/20 03:26:40;;;;;;;17.77;13.35;;;;;;;6.98;52.20;100937.28;4999802;28;20033;-88
2022/03/20 03:29:05;;;;;;;17.40;12.48;;;;;;;7.19;53.87;100935.16;5000011;28;20412;-87
2022/03/20 03:31:31;;;;;;;19.20;13.93;;;;;;;6.91;51.71;100935.94;5015371;28;20045;-87
2022/03/20 03:36:41;;;;;;;21.55;14.57;;;;;;;6.99;52.30;100927.50;5017680;28;20060;-88
2022/03/20 03:39:07;;;;;;;17.50;13.57;;;;;;;7.23;53.41;100934.03;5001748;28;20041;-86
2022/03/20 03:41:33;;;;;;;17.73;12.82;;;;;;;7.23;52.62;100921.59;5018304;28;20044;-87
2022/03/20 03:43:58;;;;;;;17.80;14.27;;;;;;;7.06;52.05;100931.50;5000405;28;20112;-87
2022/03/20 03:46:23;;;;;;;18.30;13.25;;;;;;;7.01;51.46;100922.94;5000478;28;20037;-87
2022/03/20 03:48:49;;;;;;;18.63;13.95;;;;;;;6.96;51.46;100920.56;5017360;28;20399;-86
2022/03/20 03:51:14;;;;;;;20.73;14.18;;;;;;;7.03;51.59;100918.41;5017213;28;20495;-88
2022/03/20 03:53:39;;;;;;;17.50;13.60;;;;;;;6.88;51.40;100910.38;5017304;28;20435;-87
2022/03/20 03:56:05;;;;;;;18.90;14.63;;;;;;;7.03;51.95;100913.06;5017166;28;20029;-87
2022/03/20 03:58:30;;;;;;;17.08;12.65;;;;;;;6.95;52.00;100911.72;5015768;28;20408;-87
2022/03/20 04:00:55;;;;;;;17.52;13.00;;;;;;;6.96;51.65;100912.59;5011517;28;20411;-86
2022/03/20 04:03:21;;;;;;;19.50;13.88;;;;;;;6.87;50.65;100906.03;5016768;28;20045;-85
2022/03/20 04:05:47;;;;;;;18.08;13.82;;;;;;;6.81;50.53;100901.06;5001915;28;20028;-88
2022/03/20 04:08:15;;;;;;;20.02;14.00;;;;;;;6.96;53.25;100899.28;5000987;28;20045;-87
2022/03/20 04:10:41;;;;;;;19.45;14.00;;;;;;;7.00;51.60;100892.00;5017250;28;20037;-87
2022/03/20 04:13:07;;;;;;;20.25;13.52;;;;;;;6.89;51.06;100889.97;4999526;28;20130;-87
2022/03/20 04:15:32;;;;;;;20.25;13.98;;;;;;;6.98;51.71;100881.44;5015966;28;20057;-87
2022/03/20 04:18:00;;;;;;;18.50;13.23;;;;;;;6.98;52.22;100884.09;4998480;28;20052;-87
2022/03/20 04:20:26;;;;;;;17.88;13.20;;;;;;;6.94;51.20;100877.25;5034600;28;20102;-87
2022/03/20 04:25:39;;;;;;;21.20;13.27;;;;;;;6.87;52.04;100870.59;5017817;28;20126;-88
2022/03/20 04:28:05;;;;;;;18.75;13.57;;;;;;;6.91;51.25;100872.13;5015328;28;20176;-87
2022/03/20 04:30:32;;;;;;;18.33;13.85;;;;;;;6.84;52.12;100865.47;4999036;28;20032;-87
2022/03/20 04:32:58;;;;;;;18.50;13.27;;;;;;;6.90;52.05;100873.06;4997799;28;20032;-87
2022/03/20 04:35:23;;;;;;;17.73;13.85;;;;;;;6.81;51.47;100861.19;4999699;28;20395;-87
2022/03/20 04:37:53;;;;;;;20.17;13.93;;;;;;;6.83;51.18;100864.63;5016077;28;20037;-87
2022/03/20 04:40:19;;;;;;;19.45;13.88;;;;;;;6.78;50.91;100866.69;4999465;28;20488;-87
2022/03/20 04:42:44;;;;;;;19.15;13.90;;;;;;;6.69;50.73;100867.25;4997986;28;20045;-87
2022/03/20 04:45:11;;;;;;;21.38;13.65;;;;;;;6.76;51.66;100854.44;5013973;28;20032;-87
2022/03/20 04:58:32;;;;;;;18.60;13.18;;;;;;;6.86;51.29;100843.16;5014996;28;20031;-87
2022/03/20 05:00:58;;;;;;;20.15;13.27;;;;;;;6.72;50.92;100843.13;4999360;28;20030;-87
2022/03/20 05:03:24;;;;;;;18.33;13.77;;;;;;;6.80;50.68;100853.31;5001619;28;20034;-87
2022/03/20 05:05:49;;;;;;;18.80;13.82;;;;;;;6.75;50.34;100842.09;5000050;28;20029;-87
2022/03/20 05:08:15;;;;;;;18.40;13.80;;;;;;;6.74;50.71;100843.06;4999814;28;20051;-87
2022/03/20 05:13:24;;;;;;;18.30;13.57;;;;;;;6.76;51.24;100838.50;5014664;28;20458;-87
2022/03/20 05:15:54;;;;;;;19.45;14.13;;;;;;;6.75;50.60;100834.97;4998763;28;20030;-85
2022/03/20 05:18:19;;;;;;;19.60;14.10;;;;;;;6.65;50.80;100838.28;5015156;28;20026;-88
2022/03/20 05:20:44;;;;;;;19.90;13.95;;;;;;;6.86;52.25;100832.53;4999380;28;20091;-87
2022/03/20 05:23:10;;;;;;;19.30;14.15;;;;;;;6.74;51.18;100840.38;4997699;28;20030;-86
2022/03/20 05:25:36;;;;;;;19.45;13.65;;;;;;;6.66;51.05;100838.19;5001242;28;20029;-87
2022/03/20 05:28:02;;;;;;;19.13;14.23;;;;;;;6.61;50.72;100832.25;5014795;28;20122;-86
2022/03/20 05:30:27;;;;;;;20.17;14.50;;;;;;;6.72;51.75;100836.97;4999835;28;20064;-88
2022/03/20 05:32:53;;;;;;;17.83;13.75;;;;;;;6.72;50.97;100836.97;4997339;28;20059;-85
2022/03/20 05:35:18;;;;;;;17.15;13.45;;;;;;;6.65;50.78;100836.47;4998381;28;20033;-88
2022/03/20 05:37:44;;;;;;;19.23;13.90;;;;;;;6.71;51.13;100835.25;5013046;28;20061;-87
2022/03/20 05:40:10;;;;;;;21.70;14.55;;;;;;;6.68;50.60;100835.44;4997436;28;20060;-88
2022/03/20 05:42:36;;;;;;;20.90;14.45;;;;;;;6.65;50.99;100831.16;4997188;28;20041;-87
2022/03/20 05:45:05;;;;;;;20.35;14.15;;;;;;;6.67;51.03;100837.25;5032693;28;20935;-87
2022/03/20 05:47:31;;;;;;;18.08;14.05;;;;;;;6.61;51.55;100834.91;5014831;28;20030;-87
2022/03/20 05:50:01;;;;;;;19.60;14.32;;;;;;;6.68;51.86;100825.66;5014771;28;20038;-85
2022/03/20 05:52:30;;;;;;;18.75;13.73;;;;;;;6.69;51.39;100824.72;5013013;28;20029;-87
2022/03/20 05:54:56;;;;;;;20.25;14.15;;;;;;;6.71;51.84;100824.63;5015234;28;20053;-87
2022/03/20 06:00:06;;;;;;;20.67;14.05;;;;;;;6.77;51.52;100818.94;5015534;28;20106;-87
2022/03/20 06:02:31;;;;;;;22.63;15.35;;;;;;;6.75;51.86;100807.56;5014231;28;20121;-87
2022/03/20 06:04:57;;;;;;;20.75;14.63;;;;;;;6.74;51.93;100792.53;4998632;28;20029;-87
2022/03/20 06:07:22;;;;;;;23.35;15.30;;;;;;;6.80;52.44;100789.50;4998130;28;20412;-88
2022/03/20 06:09:47;;;;;;;21.25;14.90;;;;;;;6.80;52.82;100782.41;4997929;28;20053;-87
2022/03/20 06:12:13;;;;;;;20.25;14.38;;;;;;;6.89;53.52;100780.97;4997732;28;20037;-88
2022/03/20 06:14:38;;;;;;;21.73;15.27;;;;;;;6.88;52.66;100779.25;4999354;28;20030;-88
2022/03/20 06:17:05;;;;;;;22.67;14.57;;;;;;;6.86;52.61;100779.34;5013108;28;20040;-87
2022/03/20 06:19:31;;;;;;;19.77;14.13;;;;;;;6.84;52.76;100788.38;4997674;28;20038;-87
2022/03/20 06:21:56;;;;;;;18.35;13.43;;;;;;;6.86;52.27;100786.47;4997722;28;20025;-87
2022/03/20 06:24:21;;;;;;;23.35;15.77;;;;;;;6.82;52.31;100783.16;5013415;28;20044;-84
2022/03/20 06:26:47;;;;;;;20.13;14.35;;;;;;;6.75;52.00;100776.50;4997961;28;20069;-87
2022/03/20 06:29:12;;;;;;;20.98;14.93;;;;;;;6.77;51.74;100782.59;5013678;28;20068;-86
2022/03/20 06:31:38;;;;;;;20.60;14.95;;;;;;;6.80;51.83;100779.75;4997736;28;20049;-88
2022/03/20 06:34:04;;;;;;;19.60;14.85;;;;;;;6.79;51.72;100780.69;4997370;28;20033;-87
2022/03/20 06:36:30;;;;;;;20.30;15.10;;;;;;;6.76;51.52;100780.03;4998949;28;20033;-87
2022/03/20 06:38:55;;;;;;;19.23;14.75;;;;;;;6.80;51.40;100782.41;4998441;28;20415;-87
2022/03/20 06:41:21;;;;;;;20.40;14.98;;;;;;;6.84;51.98;100778.59;5002877;28;20029;-87
2022/03/20 06:43:46;;;;;;;21.75;15.68;;;;;;;6.85;51.83;100780.31;5017092;28;20021;-87
2022/03/20 06:46:12;;;;;;;20.92;15.60;;;;;;;6.81;52.91;100775.28;5019094;28;20033;-87
2022/03/20 06:48:37;;;;;;;21.52;16.05;;;;;;;6.91;54.03;100777.28;5018657;28;20997;-87
2022/03/20 06:51:04;;;;;;;22.23;15.85;;;;;;;6.81;53.46;100776.13;5000184;28;20045;-87
2022/03/20 06:53:30;;;;;;;21.58;15.45;;;;;;;6.82;53.53;100772.53;5006282;28;20034;-86
2022/03/20 06:55:56;;;;;;;24.92;16.58;;;;;;;6.83;54.30;100760.09;4998771;28;20040;-87
2022/03/20 06:58:22;;;;;;;20.95;15.77;;;;;;;6.76;53.86;100758.75;5016363;28;20033;-86
2022/03/20 07:00:48;;;;;;;24.10;15.75;;;;;;;6.82;54.75;100755.72;5015006;28;20029;-85
2022/03/20 07:03:15;;;;;;;20.83;15.30;;;;;;;6.74;54.32;100764.16;5014649;28;20390;-87
2022/03/20 07:05:40;;;;;;;21.13;15.10;;;;;;;6.78;54.67;100752.41;5014844;28;20025;-87
2022/03/20 07:08:07;;;;;;;21.42;15.90;;;;;;;6.77;54.70;100756.00;5014253;28;20565;-87
2022/03/20 07:10:32;;;;;;;21.55;15.98;;;;;;;6.79;54.83;100750.59;4998931;28;20554;-86
2022/03/20 07:15:44;;;;;;;22.58;16.08;;;;;;;6.84;55.36;100756.47;5017478;28;20041;-86
2022/03/20 07:18:11;;;;;;;21.67;16.23;;;;;;;6.91;55.18;100749.84;5017820;28;20836;-86
2022/03/20 07:20:38;;;;;;;22.02;16.23;;;;;;;6.95;55.16;100751.34;5000768;28;20029;-87
2022/03/20 07:23:03;;;;;;;21.42;16.17;;;;;;;6.95;54.88;100754.00;5000012;28;20151;-87
2022/03/20 07:30:56;;;;;;;21.73;15.57;;;;;;;7.01;55.10;100744.78;5019181;28;20083;-87
2022/03/20 07:33:25;;;;;;;21.80;15.60;;;;;;;6.94;54.62;100737.19;4999243;28;20029;-87
2022/03/20 07:35:50;;;;;;;20.83;16.00;;;;;;;6.97;55.26;100744.13;5014131;28;20030;-84
2022/03/20 07:38:16;;;;;;;25.10;16.98;;;;;;;7.00;54.18;100735.97;4998840;28;20036;-87
2022/03/20 07:40:41;;;;;;;21.25;15.88;;;;;;;7.03;54.95;100737.56;4997740;28;20033;-86
2022/03/20 07:43:07;;;;;;;22.45;15.45;;;;;;;7.11;55.50;100735.31;5012764;28;20483;-87
2022/03/20 07:45:32;;;;;;;26.65;16.75;;;;;;;7.14;55.00;100732.47;5013583;28;20033;-86
2022/03/20 07:47:58;;;;;;;21.38;15.98;;;;;;;7.08;54.51;100732.81;5013431;28;20030;-87
2022/03/20 07:50:23;;;;;;;21.83;16.05;;;;;;;7.08;53.41;100738.13;5013899;28;20026;-88
2022/03/20 07:52:50;;;;;;;21.25;15.10;;;;;;;7.17;54.22;100735.78;4999419;28;20120;-87
2022/03/20 07:55:16;;;;;;;24.05;16.92;;;;;;;7.09;53.08;100751.34;4998969;28;20163;-88
2022/03/20 07:57:41;;;;;;;21.25;15.82;;;;;;;7.16;53.55;100749.19;4998999;28;20041;-87
2022/03/20 08:00:08;;;;;;;25.38;16.10;;;;;;;7.14;53.14;100751.06;5000337;28;20033;-87
2022/03/20 08:02:34;;;;;;;22.60;15.60;;;;;;;7.18;52.88;100753.44;5014750;28;20034;-86
2022/03/20 08:05:00;;;;;;;25.13;17.02;;;;;;;7.15;53.02;100748.31;4995796;28;20036;-88
2022/03/20 08:07:26;;;;;;;22.25;16.63;;;;;;;7.14;52.95;100753.75;4995430;28;20030;-85
2022/03/20 08:09:51;;;;;;;22.42;16.10;;;;;;;7.17;53.63;100748.22;5014378;28;20108;-87
2022/03/20 08:12:16;;;;;;;21.77;15.57;;;;;;;7.24;53.17;100741.56;4999318;28;20040;-86
2022/03/20 08:14:42;;;;;;;20.75;15.88;;;;;;;7.30;53.20;100748.28;5016690;28;20034;-87
2022/03/20 08:17:08;;;;;;;21.55;15.93;;;;;;;7.28;52.76;100742.22;4999558;28;20028;-85
2022/03/20 08:19:34;;;;;;;22.75;16.40;;;;;;;7.27;53.13;100738.72;5016202;28;20060;-88
2022/03/20 08:21:59;;;;;;;21.83;15.48;;;;;;;7.32;52.80;100728.63;5016184;28;20057;-87
2022/03/20 08:24:25;;;;;;;24.40;17.00;;;;;;;7.42;53.11;100727.06;4998195;28;20753;-87
2022/03/20 08:26:50;;;;;;;24.38;16.45;;;;;;;7.45;52.78;100720.69;5014198;28;20021;-87
2022/03/20 08:29:16;;;;;;;22.58;16.25;;;;;;;7.53;52.94;100727.22;5014809;28;20083;-86
2022/03/20 08:31:47;;;;;;;24.88;16.98;;;;;;;7.63;53.70;100724.84;4997347;28;20398;-88
2022/03/20 08:34:14;;;;;;;22.92;16.85;;;;;;;7.53;52.33;100713.94;4997803;28;20033;-87
2022/03/20 08:36:41;;;;;;;23.48;16.25;;;;;;;7.47;52.79;100718.78;4998261;28;20036;-85
2022/03/20 08:39:06;;;;;;;22.15;16.08;;;;;;;7.36;52.27;100719.50;5014723;28;20129;-87
2022/03/20 08:41:33;;;;;;;24.60;17.45;;;;;;;7.35;52.00;100716.94;4997118;28;20029;-87
2022/03/20 08:43:58;;;;;;;21.80;16.85;;;;;;;7.32;52.53;100727.78;4998406;28;20037;-87
2022/03/20 08:46:24;;;;;;;23.90;16.77;;;;;;;7.34;52.82;100721.41;5000452;28;20036;-86
2022/03/20 08:48:49;;;;;;;21.50;16.10;;;;;;;7.31;52.27;100712.75;4998005;28;20052;-87
2022/03/20 08:51:15;;;;;;;24.17;17.45;;;;;;;7.24;52.31;100706.97;5015016;28;20033;-87
2022/03/20 08:53:40;;;;;;;22.63;16.10;;;;;;;7.37;53.17;100712.38;4997057;28;20049;-87
2022/03/20 08:56:06;;;;;;;24.15;16.75;;;;;;;7.38;52.83;100727.38;4998960;28;20117;-87
2022/03/20 08:58:31;;;;;;;25.08;17.77;;;;;;;7.36;52.75;100731.94;5016112;28;20105;-87
2022/03/20 09:01:00;;;;;;;26.25;18.67;;;;;;;7.33;52.67;100733.00;4997924;28;20041;-86
2022/03/20 09:03:25;;;;;;;25.88;17.42;;;;;;;7.34;52.99;100732.03;5013490;28;20589;-87
2022/03/20 09:05:51;;;;;;;25.40;17.75;;;;;;;7.35;52.82;100725.75;5014335;28;20037;-88
2022/03/20 09:08:16;;;;;;;23.23;16.73;;;;;;;7.33;53.02;100733.00;5014597;28;20076;-87
2022/03/20 09:10:41;;;;;;;25.95;17.63;;;;;;;7.26;53.26;100735.19;4998925;28;20025;-86
2022/03/20 09:13:07;;;;;;;25.58;17.40;;;;;;;7.21;53.48;100729.31;5014595;28;20083;-87
2022/03/20 09:15:32;;;;;;;24.77;17.15;;;;;;;7.20;53.03;100730.25;5015246;28;20042;-87
2022/03/20 09:20:43;;;;;;;24.25;16.05;;;;;;;7.27;53.83;100730.72;5013259;28;20040;-87
2022/03/20 09:23:10;;;;;;;25.63;17.95;;;;;;;7.22;53.53;100723.03;5015487;28;20040;-87
2022/03/20 09:25:36;;;;;;;23.05;16.58;;;;;;;7.27;52.84;100728.06;5014082;28;20049;-85
2022/03/20 09:28:03;;;;;;;23.52;17.35;;;;;;;7.32;53.86;100723.31;4999696;28;20037;-86
2022/03/20 09:30:28;;;;;;;22.92;16.95;;;;;;;7.37;54.00;100717.69;5012942;28;20029;-87
2022/03/20 09:32:53;;;;;;;30.05;17.50;;;;;;;7.43;54.25;100722.59;4996620;28;20091;-87
2022/03/20 09:35:19;;;;;;;24.90;18.38;;;;;;;7.34;53.72;100715.22;5014410;28;20505;-87
2022/03/20 09:37:45;;;;;;;26.60;18.13;;;;;;;7.34;53.93;100707.25;4998789;28;20039;-87
2022/03/20 09:40:11;;;;;;;24.13;18.00;;;;;;;7.37;54.09;100697.25;5015488;28;20029;-87
2022/03/20 09:42:38;;;;;;;23.67;17.92;;;;;;;7.31;53.45;100705.63;5023345;28;20047;-87
2022/03/20 09:45:05;;;;;;;25.17;17.95;;;;;;;7.31;54.29;100696.81;5007273;28;20771;-86
2022/03/20 09:47:35;;;;;;;24.13;17.20;;;;;;;7.35;53.99;100700.97;4997789;28;20430;-88
2022/03/20 09:50:00;;;;;;;23.55;16.73;;;;;;;7.43;54.45;100709.31;5014794;28;20116;-87
2022/03/20 09:52:26;;;;;;;26.35;18.08;;;;;;;7.54;54.36;100705.00;4998291;28;20121;-86
2022/03/20 09:54:51;;;;;;;23.80;17.45;;;;;;;7.60;54.25;100717.06;4996539;28;20057;-87
2022/03/20 09:57:16;;;;;;;26.65;18.58;;;;;;;7.73;54.66;100703.81;4997087;28;20145;-87
2022/03/20 09:59:42;;;;;;;23.42;17.42;;;;;;;7.69;53.98;100704.97;4997150;28;20053;-85
2022/03/20 10:02:10;;;;;;;25.58;17.95;;;;;;;7.67;54.35;100707.72;4997120;28;20112;-87
2022/03/20 10:05:04;;;;;;;27.30;17.95;;;;;;;7.69;53.64;100702.31;4997948;28;20034;-87
2022/03/20 10:07:33;;;;;;;25.75;18.33;;;;;;;7.66;53.87;100714.00;4996186;28;20029;-86
2022/03/20 10:10:10;;;;;;;;;;;;;;;7.70;53.80;100704.00;4998157;28;20482;-88
2022/03/20 10:12:40;;;;;;;24.15;16.85;;;;;;;7.77;54.05;100702.66;4995989;28;19918;-87
2022/03/20 10:15:08;;;;;;;26.98;17.90;;;;;;;7.80;54.12;100713.09;5034312;28;20147;-86
2022/03/20 10:17:33;;;;;;;24.20;17.45;;;;;;;7.68;54.06;100711.25;5016281;28;20036;-86
2022/03/20 10:20:16;;;;;;;24.60;18.45;;;;;;;7.70;53.59;100704.00;4999940;28;20372;-87
2022/03/20 10:22:41;;;;;;;24.27;18.42;;;;;;;7.69;53.81;100716.47;4995801;28;20060;-87
2022/03/20 10:25:11;;;;;;;21.58;17.08;;;;;;;7.73;54.25;100712.66;4998068;28;20030;-85
2022/03/20 10:27:37;;;;;;;27.08;18.75;;;;;;;7.80;54.65;100716.59;5013709;28;20104;-87
2022/03/20 10:30:07;;;;;;;25.75;18.15;;;;;;;7.84;54.21;100709.25;4998784;28;20029;-87
2022/03/20 10:32:33;;;;;;;26.40;18.48;;;;;;;7.82;54.61;100717.34;5002012;28;20068;-87
2022/03/20 10:35:01;;;;;;;24.40;17.80;;;;;;;7.74;54.09;100717.00;5002122;28;20065;-85
2022/03/20 10:37:54;;;;;;;26.25;18.42;;;;;;;7.71;54.28;100708.38;5015782;28;20033;-87
2022/03/20 10:40:23;;;;;;;23.80;16.92;;;;;;;7.75;54.97;100708.06;5018885;28;20030;-87
2022/03/20 10:43:13;;;;;;;24.90;18.38;;;;;;;7.78;54.68;100715.00;4996377;28;20036;-87
2022/03/20 10:45:53;;;;;;;27.25;18.95;;;;;;;7.78;54.24;100712.34;4999369;28;20053;-87
2022/03/20 10:48:43;;;;;;;24.05;18.27;;;;;;;7.79;54.71;100709.56;5017469;28;20022;-87
2022/03/20 10:51:09;;;;;;;27.17;18.38;;;;;;;7.80;54.71;100719.25;5015633;28;20503;-86
2022/03/20 10:53:36;;;;;;;24.63;18.48;;;;;;;7.78;54.57;100723.00;4999151;28;20080;-86
2022/03/20 10:56:06;;;;;;;25.77;18.30;;;;;;;7.75;54.54;100729.38;5008923;28;20034;-87
2022/03/20 10:58:36;;;;;;;24.95;18.23;;;;;;;7.75;55.09;100737.34;4999995;28;20029;-86
2022/03/20 11:01:01;;;;;;;24.70;17.92;;;;;;;7.77;55.05;100737.25;4998504;28;20030;-87
2022/03/20 11:03:27;;;;;;;23.27;17.40;;;;;;;7.80;54.92;100732.56;4998786;28;20044;-86
2022/03/20 11:05:54;;;;;;;23.40;17.52;;;;;;;7.92;55.89;100740.72;4997967;28;20033;-85
2022/03/20 11:08:19;;;;;;;23.77;18.50;;;;;;;7.95;56.10;100732.50;4999600;28;20030;-87
2022/03/20 11:10:48;;;;;;;26.85;18.42;;;;;;;7.89;55.11;100726.63;5016718;28;20091;-86
2022/03/20 11:13:14;;;;;;;24.02;17.38;;;;;;;7.94;55.83;100728.16;5016545;28;20040;-87
2022/03/20 11:15:43;;;;;;;24.60;17.48;;;;;;;7.92;55.43;100724.72;4999248;28;20092;-86
2022/03/20 11:18:08;;;;;;;23.83;17.33;;;;;;;7.85;54.96;100727.81;5017077;28;20034;-87
2022/03/20 11:20:34;;;;;;;24.00;17.50;;;;;;;7.81;54.62;100717.47;4997310;28;20041;-86
2022/03/20 11:23:04;;;;;;;25.15;17.52;;;;;;;7.81;55.00;100718.31;4997452;28;20057;-87
2022/03/20 11:25:30;;;;;;;23.90;17.90;;;;;;;7.84;54.80;100712.78;5014806;28;20064;-85
2022/03/20 11:28:04;;;;;;;26.05;18.13;;;;;;;7.88;55.02;100716.09;4999520;28;20095;-87
2022/03/20 11:30:32;;;;;;;24.92;16.92;;;;;;;7.85;55.19;100717.16;5014336;28;20116;-86
2022/03/20 11:33:00;;;;;;;25.60;18.30;;;;;;;7.84;54.94;100712.78;4998630;28;20036;-86
2022/03/20 11:35:30;;;;;;;25.23;17.90;;;;;;;7.83;54.97;100719.06;4999315;28;20701;-85
2022/03/20 11:37:58;;;;;;;22.70;16.83;;;;;;;7.86;55.04;100721.53;5031016;28;20057;-87
2022/03/20 11:40:25;;;;;;;;;;;;;;;7.90;54.96;100715.03;4998301;28;20025;-87
2022/03/20 11:43:15;;;;;;;23.02;17.17;;;;;;;7.96;54.47;100710.25;4998559;28;19968;-87
2022/03/20 11:45:41;;;;;;;24.25;18.10;;;;;;;7.97;54.92;100715.47;5022971;28;20511;-87
2022/03/20 11:48:15;;;;;;;23.33;17.90;;;;;;;7.99;54.45;100715.38;5013670;28;20026;-87
2022/03/20 11:50:44;;;;;;;24.30;17.75;;;;;;;7.98;54.64;100719.84;5013592;28;20017;-87
2022/03/20 11:53:11;;;;;;;26.20;18.05;;;;;;;7.97;54.50;100718.13;5012194;28;20545;-87
2022/03/20 11:55:41;;;;;;;22.50;16.90;;;;;;;7.93;54.61;100724.63;4994990;28;20399;-87